createdAt,value
2023-05-06T00:01:25.645Z,94845.25
2023-05-06T00:03:52.494Z,94830.31
2023-05-06T00:06:19.538Z,94828.28
2023-05-06T00:08:46.800Z,94835.72
2023-05-06T00:11:13.854Z,94830.22
2023-05-06T00:13:41.472Z,94825.34
2023-05-06T00:16:08.356Z,94819.75
2023-05-06T00:18:35.818Z,94829.47
2023-05-06T00:21:02.540Z,94827.91
2023-05-06T00:23:29.502Z,94825.41
2023-05-06T00:25:56.514Z,94825.91
2023-05-06T00:28:23.305Z,94814.63
2023-05-06T00:30:50.574Z,94817.69
2023-05-06T00:33:17.310Z,94814.63
2023-05-06T00:35:44.154Z,94816.38
2023-05-06T00:38:15.595Z,94820.38
2023-05-06T00:40:42.672Z,94811.38
2023-05-06T00:43:10.069Z,94803.41
2023-05-06T00:45:37.324Z,94803.38
2023-05-06T00:48:08.104Z,94802.84
2023-05-06T00:50:35.829Z,94807.38
2023-05-06T00:53:05.894Z,94805.97
2023-05-06T00:55:32.812Z,94803.47
2023-05-06T00:57:59.710Z,94815.25
2023-05-06T01:00:26.885Z,94813.22
2023-05-06T01:02:53.935Z,94810.66
2023-05-06T01:05:23.836Z,94809.75
2023-05-06T01:07:51.176Z,94803.75
2023-05-06T01:10:20.916Z,94811.03
2023-05-06T01:12:59.809Z,94799.19
2023-05-06T01:15:44.779Z,94811.53
2023-05-06T01:18:16.037Z,94805.72
2023-05-06T01:20:47.691Z,94803.22
2023-05-06T01:23:14.886Z,94804.25
2023-05-06T01:25:42.062Z,94812.88
2023-05-06T01:28:13.260Z,94809.38
2023-05-06T01:30:54.963Z,94807.91
2023-05-06T01:34:09.456Z,94809.47
2023-05-06T01:37:01.377Z,94806.34
2023-05-06T01:39:31.161Z,94806.22
2023-05-06T01:42:02.209Z,94807.59
2023-05-06T01:44:33.590Z,94806.78
2023-05-06T01:47:02.671Z,94800.00
2023-05-06T01:49:30.332Z,94800.84
2023-05-06T01:51:58.027Z,94806.75
2023-05-06T01:54:25.211Z,94820.94
2023-05-06T01:56:51.948Z,94816.53
2023-05-06T01:59:18.667Z,94813.19
2023-05-06T02:01:45.557Z,94816.34
2023-05-06T02:04:12.449Z,94802.56
2023-05-06T02:06:39.530Z,94808.22
2023-05-06T02:09:06.751Z,94812.88
2023-05-06T02:11:38.608Z,94807.50
2023-05-06T02:14:07.053Z,94794.72
2023-05-06T02:16:35.681Z,94790.19
2023-05-06T02:19:02.877Z,94806.19
2023-05-06T02:21:29.668Z,94811.59
2023-05-06T02:23:56.370Z,94811.34
2023-05-06T02:26:23.268Z,94813.41
2023-05-06T02:28:50.497Z,94806.78
2023-05-06T02:31:17.869Z,94814.41
2023-05-06T02:33:45.944Z,94808.59
2023-05-06T02:36:12.905Z,94806.47
2023-05-06T02:38:39.572Z,94810.75
2023-05-06T02:41:06.829Z,94804.44
2023-05-06T02:43:33.550Z,94804.69
2023-05-06T02:46:00.407Z,94801.69
2023-05-06T02:48:27.412Z,94809.31
2023-05-06T02:50:54.081Z,94802.78
2023-05-06T02:53:21.260Z,94809.56
2023-05-06T02:55:48.345Z,94817.63
2023-05-06T02:58:15.143Z,94805.47
2023-05-06T03:00:42.014Z,94807.97
2023-05-06T03:03:10.010Z,94804.03
2023-05-06T03:05:37.284Z,94804.06
2023-05-06T03:08:04.229Z,94801.66
2023-05-06T03:10:32.149Z,94797.09
2023-05-06T03:13:00.142Z,94803.38
2023-05-06T03:15:28.310Z,94799.53
2023-05-06T03:17:55.316Z,94803.34
2023-05-06T03:20:23.034Z,94792.81
2023-05-06T03:22:54.119Z,94799.00
2023-05-06T03:25:22.379Z,94801.75
2023-05-06T03:27:49.481Z,94789.66
2023-05-06T03:30:19.832Z,94794.72
2023-05-06T03:32:48.908Z,94792.16
2023-05-06T03:35:22.798Z,94787.97
2023-05-06T03:37:53.631Z,94782.88
2023-05-06T03:40:22.928Z,94787.63
2023-05-06T03:42:51.181Z,94794.06
2023-05-06T03:45:19.025Z,94796.56
2023-05-06T03:47:46.794Z,94789.22
2023-05-06T03:50:14.076Z,94792.50
2023-05-06T03:52:41.973Z,94789.88
2023-05-06T03:55:10.472Z,94792.50
2023-05-06T03:57:38.977Z,94798.16
2023-05-06T04:00:07.835Z,94797.88
2023-05-06T04:02:43.081Z,94796.16
2023-05-06T04:05:14.488Z,94794.28
2023-05-06T04:07:41.678Z,94795.31
2023-05-06T04:10:09.185Z,94796.00
2023-05-06T04:12:36.783Z,94789.28
2023-05-06T04:15:04.439Z,94786.00
2023-05-06T04:17:31.519Z,94794.59
2023-05-06T04:19:58.721Z,94796.44
2023-05-06T04:22:25.822Z,94794.59
2023-05-06T04:24:53.755Z,94803.72
2023-05-06T04:27:20.770Z,94799.78
2023-05-06T04:29:47.821Z,94798.94
2023-05-06T04:32:18.101Z,94795.84
2023-05-06T04:34:47.404Z,94804.78
2023-05-06T04:37:15.918Z,94806.28
2023-05-06T04:39:47.650Z,94813.25
2023-05-06T04:42:16.205Z,94816.78
2023-05-06T04:44:50.293Z,94822.81
2023-05-06T04:47:20.489Z,94825.63
2023-05-06T04:49:50.614Z,94827.72
2023-05-06T04:52:18.038Z,94829.91
2023-05-06T04:54:45.723Z,94833.28
2023-05-06T04:57:12.918Z,94838.41
2023-05-06T04:59:42.777Z,94837.44
2023-05-06T05:02:09.872Z,94836.38
2023-05-06T05:04:37.204Z,94834.84
2023-05-06T05:07:04.589Z,94836.50
2023-05-06T05:09:32.248Z,94837.38
2023-05-06T05:12:01.396Z,94842.69
2023-05-06T05:14:29.950Z,94849.66
2023-05-06T05:16:57.447Z,94847.66
2023-05-06T05:19:24.561Z,94856.38
2023-05-06T05:21:52.622Z,94850.59
2023-05-06T05:24:20.419Z,94838.72
2023-05-06T05:26:47.236Z,94841.84
2023-05-06T05:29:15.520Z,94832.88
2023-05-06T05:31:43.105Z,94838.97
2023-05-06T05:34:10.367Z,94832.78
2023-05-06T05:36:37.440Z,94833.09
2023-05-06T05:39:07.556Z,94845.53
2023-05-06T05:41:38.888Z,94831.19
2023-05-06T05:44:06.021Z,94836.25
2023-05-06T05:46:32.878Z,94837.44
2023-05-06T05:49:00.779Z,94830.38
2023-05-06T05:51:28.041Z,94846.16
2023-05-06T05:53:57.007Z,94841.97
2023-05-06T05:56:25.243Z,94849.09
2023-05-06T05:58:51.978Z,94839.41
2023-05-06T06:01:19.776Z,94840.13
2023-05-06T06:03:47.759Z,94839.00
2023-05-06T06:06:14.870Z,94849.63
2023-05-06T06:08:41.852Z,94845.72
2023-05-06T06:11:09.310Z,94847.78
2023-05-06T06:13:40.233Z,94838.78
2023-05-06T06:16:08.079Z,94837.25
2023-05-06T06:18:35.128Z,94838.94
2023-05-06T06:21:02.552Z,94838.81
2023-05-06T06:23:29.641Z,94837.78
2023-05-06T06:25:56.603Z,94843.94
2023-05-06T06:28:23.352Z,94841.56
2023-05-06T06:30:50.363Z,94845.59
2023-05-06T06:33:17.468Z,94851.66
2023-05-06T06:35:44.259Z,94848.91
2023-05-06T06:38:11.693Z,94846.22
2023-05-06T06:40:38.403Z,94859.81
2023-05-06T06:43:05.300Z,94864.53
2023-05-06T06:45:58.219Z,94859.28
2023-05-06T06:48:25.151Z,94866.31
2023-05-06T06:50:52.138Z,94862.88
2023-05-06T06:53:19.061Z,94871.19
2023-05-06T06:55:46.258Z,94873.59
2023-05-06T06:58:13.462Z,94869.66
2023-05-06T07:00:40.523Z,94867.13
2023-05-06T07:03:07.349Z,94877.38
2023-05-06T07:05:34.399Z,94869.72
2023-05-06T07:08:01.273Z,94868.97
2023-05-06T07:10:28.385Z,94869.75
2023-05-06T07:12:55.244Z,94865.78
2023-05-06T07:15:22.189Z,94868.47
2023-05-06T07:17:48.894Z,94863.41
2023-05-06T07:20:16.368Z,94863.91
2023-05-06T07:22:45.570Z,94872.41
2023-05-06T07:25:12.770Z,94867.94
2023-05-06T07:27:39.991Z,94871.41
2023-05-06T07:30:08.070Z,94871.81
2023-05-06T07:32:35.646Z,94879.06
2023-05-06T07:35:02.843Z,94878.31
2023-05-06T07:37:30.014Z,94878.66
2023-05-06T07:39:57.395Z,94881.25
2023-05-06T07:42:24.243Z,94893.41
2023-05-06T07:44:51.046Z,94883.84
2023-05-06T07:47:28.526Z,94889.53
2023-05-06T07:49:56.136Z,94892.63
2023-05-06T07:52:24.081Z,94894.91
2023-05-06T07:54:51.324Z,94901.28
2023-05-06T07:57:18.077Z,94895.59
2023-05-06T07:59:48.101Z,94895.47
2023-05-06T08:02:15.459Z,94902.66
2023-05-06T08:04:43.088Z,94906.50
2023-05-06T08:07:11.200Z,94898.47
2023-05-06T08:09:38.028Z,94908.91
2023-05-06T08:12:05.430Z,94902.72
2023-05-06T08:14:32.414Z,94908.50
2023-05-06T08:16:59.715Z,94907.91
2023-05-06T08:19:26.801Z,94901.25
2023-05-06T08:21:54.298Z,94906.34
2023-05-06T08:24:21.549Z,94911.41
2023-05-06T08:26:48.358Z,94917.81
2023-05-06T08:29:15.079Z,94921.78
2023-05-06T08:31:43.750Z,94927.59
2023-05-06T08:34:10.791Z,94926.94
2023-05-06T08:36:37.944Z,94926.25
2023-05-06T08:39:04.750Z,94935.81
2023-05-06T08:41:34.459Z,94933.44
2023-05-06T08:44:03.575Z,94933.09
2023-05-06T08:46:31.177Z,94930.56
2023-05-06T08:49:01.527Z,94929.94
2023-05-06T08:51:33.076Z,94930.25
2023-05-06T08:54:04.104Z,94931.09
2023-05-06T08:56:33.958Z,94925.78
2023-05-06T08:59:01.486Z,94930.13
2023-05-06T09:01:28.807Z,94921.84
2023-05-06T09:03:58.354Z,94923.50
2023-05-06T09:06:27.183Z,94926.31
2023-05-06T09:08:54.804Z,94929.88
2023-05-06T09:11:26.095Z,94923.41
2023-05-06T09:14:12.923Z,94929.97
2023-05-06T09:16:42.766Z,94929.94
2023-05-06T09:19:09.831Z,94932.00
2023-05-06T09:21:39.247Z,94924.56
2023-05-06T09:24:13.802Z,94921.97
2023-05-06T09:26:42.885Z,94920.38
2023-05-06T09:29:09.982Z,94925.69
2023-05-06T09:31:46.100Z,94926.22
2023-05-06T09:34:14.793Z,94917.19
2023-05-06T09:36:41.899Z,94893.34
2023-05-06T09:39:10.201Z,94917.22
2023-05-06T09:42:25.419Z,94955.75
2023-05-06T09:44:55.067Z,94901.31
2023-05-06T09:47:28.680Z,94917.91
2023-05-06T09:50:01.463Z,94907.03
2023-05-06T09:52:55.239Z,94878.44
2023-05-06T09:55:27.253Z,94916.59
2023-05-06T09:58:43.995Z,94900.09
2023-05-06T10:01:17.057Z,94897.88
2023-05-06T10:03:51.726Z,94912.28
2023-05-06T10:06:20.052Z,94922.22
2023-05-06T10:08:48.147Z,94902.56
2023-05-06T10:11:15.906Z,94913.19
2023-05-06T10:13:44.517Z,94913.16
2023-05-06T10:16:14.572Z,94907.00
2023-05-06T10:18:45.984Z,94893.47
2023-05-06T10:21:21.975Z,94898.81
2023-05-06T10:24:07.734Z,94901.03
2023-05-06T10:26:38.881Z,94903.50
2023-05-06T10:29:09.596Z,94918.78
2023-05-06T10:31:44.319Z,94880.06
2023-05-06T10:34:11.560Z,94879.47
2023-05-06T10:36:39.458Z,94857.66
2023-05-06T10:39:10.636Z,94898.63
2023-05-06T10:41:38.504Z,94894.41
2023-05-06T10:44:06.172Z,94914.56
2023-05-06T10:46:59.897Z,94918.31
2023-05-06T10:49:27.833Z,94853.66
2023-05-06T10:52:15.398Z,94868.31
2023-05-06T10:54:51.874Z,94885.50
2023-05-06T10:57:20.883Z,94762.22
2023-05-06T10:59:48.818Z,94736.28
2023-05-06T11:02:20.885Z,94848.63
2023-05-06T11:04:53.047Z,94789.13
2023-05-06T11:07:24.120Z,94848.66
2023-05-06T11:10:02.124Z,94844.63
2023-05-06T11:12:52.855Z,94850.22
2023-05-06T11:15:24.509Z,94824.44
2023-05-06T11:17:52.436Z,94892.22
2023-05-06T11:20:23.474Z,94896.28
2023-05-06T11:22:50.466Z,94909.31
2023-05-06T11:25:53.676Z,94827.19
2023-05-06T11:28:20.638Z,94794.72
2023-05-06T11:30:56.266Z,94804.94
2023-05-06T11:33:27.798Z,94797.31
2023-05-06T11:35:54.522Z,94813.22
2023-05-06T11:38:21.318Z,94831.94
2023-05-06T11:40:49.400Z,94835.88
2023-05-06T11:43:17.505Z,94848.69
2023-05-06T11:45:48.552Z,94831.50
2023-05-06T11:48:17.237Z,94830.22
2023-05-06T11:50:46.105Z,94866.19
2023-05-06T11:53:23.384Z,94847.09
2023-05-06T11:55:53.228Z,94820.44
2023-05-06T11:58:25.229Z,94822.50
2023-05-06T12:00:57.530Z,94828.56
2023-05-06T12:03:25.904Z,94824.69
2023-05-06T12:05:53.648Z,94832.06
2023-05-06T12:08:27.910Z,94832.25
2023-05-06T12:10:59.337Z,94829.59
2023-05-06T12:13:27.549Z,94849.91
2023-05-06T12:15:55.579Z,94825.66
2023-05-06T12:18:23.836Z,94830.94
2023-05-06T12:20:53.480Z,94833.25
2023-05-06T12:23:21.908Z,94801.47
2023-05-06T12:26:02.399Z,94817.75
2023-05-06T12:28:30.354Z,94825.38
2023-05-06T12:30:57.126Z,94831.19
2023-05-06T12:33:24.015Z,94792.09
2023-05-06T12:35:57.065Z,94802.03
2023-05-06T12:38:24.058Z,94811.53
2023-05-06T12:40:55.164Z,94826.44
2023-05-06T12:43:32.627Z,94822.34
2023-05-06T12:46:04.937Z,94830.72
2023-05-06T12:48:31.991Z,94818.88
2023-05-06T12:50:58.942Z,94827.19
2023-05-06T12:53:34.086Z,94810.38
2023-05-06T12:56:01.052Z,94805.19
2023-05-06T12:58:28.253Z,94834.63
2023-05-06T13:00:55.013Z,94828.28
2023-05-06T13:03:21.854Z,94819.81
2023-05-06T13:05:50.329Z,94828.97
2023-05-06T13:08:17.242Z,94825.84
2023-05-06T13:10:44.021Z,94808.38
2023-05-06T13:13:10.724Z,94763.50
2023-05-06T13:15:37.800Z,94756.63
2023-05-06T13:18:05.206Z,94755.34
2023-05-06T13:20:32.704Z,94772.78
2023-05-06T13:22:59.594Z,94794.78
2023-05-06T13:25:26.355Z,94773.34
2023-05-06T13:27:53.322Z,94783.78
2023-05-06T13:30:20.185Z,94781.75
2023-05-06T13:32:47.434Z,94769.78
2023-05-06T13:35:14.415Z,94772.03
2023-05-06T13:37:41.154Z,94756.50
2023-05-06T13:40:08.800Z,94758.44
2023-05-06T13:42:36.515Z,94745.19
2023-05-06T13:45:03.293Z,94766.16
2023-05-06T13:47:30.030Z,94793.03
2023-05-06T13:49:56.751Z,94786.47
2023-05-06T13:52:24.048Z,94772.16
2023-05-06T13:54:50.752Z,94764.41
2023-05-06T13:57:19.100Z,94745.22
2023-05-06T13:59:46.073Z,94746.63
2023-05-06T14:02:14.016Z,94790.06
2023-05-06T14:04:41.105Z,94740.66
2023-05-06T14:07:07.860Z,94732.13
2023-05-06T14:09:34.623Z,94728.81
2023-05-06T14:12:01.470Z,94745.22
2023-05-06T14:14:28.806Z,94750.66
2023-05-06T14:16:55.776Z,94747.03
2023-05-06T14:19:22.506Z,94739.78
2023-05-06T14:21:50.956Z,94732.84
2023-05-06T14:24:17.690Z,94736.13
2023-05-06T14:26:46.339Z,94764.00
2023-05-06T14:29:13.154Z,94737.09
2023-05-06T14:31:40.275Z,94708.81
2023-05-06T14:34:07.312Z,94695.81
2023-05-06T14:36:34.269Z,94731.78
2023-05-06T14:39:01.305Z,94717.13
2023-05-06T14:41:28.217Z,94733.56
2023-05-06T14:43:55.266Z,94744.78
2023-05-06T14:46:22.106Z,94707.94
2023-05-06T14:48:48.823Z,94719.97
2023-05-06T14:51:15.565Z,94735.38
2023-05-06T14:53:42.427Z,94752.69
2023-05-06T14:56:10.622Z,94738.09
2023-05-06T14:58:37.489Z,94711.56
2023-05-06T15:01:04.238Z,94686.97
2023-05-06T15:03:31.110Z,94685.63
2023-05-06T15:05:58.331Z,94711.53
2023-05-06T15:08:26.391Z,94697.19
2023-05-06T15:10:53.327Z,94713.69
2023-05-06T15:13:20.314Z,94730.63
2023-05-06T15:15:47.134Z,94696.78
2023-05-06T15:18:14.307Z,94732.28
2023-05-06T15:20:41.039Z,94678.47
2023-05-06T15:23:07.767Z,94722.13
2023-05-06T15:25:36.101Z,94744.22
2023-05-06T15:28:05.122Z,94719.81
2023-05-06T15:30:32.068Z,94726.72
2023-05-06T15:32:58.988Z,94737.75
2023-05-06T15:35:25.910Z,94696.88
2023-05-06T15:37:59.735Z,94734.53
2023-05-06T15:40:27.075Z,94736.72
2023-05-06T15:42:54.177Z,94732.41
2023-05-06T15:45:21.987Z,94711.84
2023-05-06T15:47:49.054Z,94734.53
2023-05-06T15:50:25.255Z,94723.66
2023-05-06T15:52:58.749Z,94710.09
2023-05-06T15:55:26.568Z,94731.63
2023-05-06T15:57:54.842Z,94714.44
2023-05-06T16:00:22.345Z,94689.69
2023-05-06T16:02:49.413Z,94700.16
2023-05-06T16:05:16.563Z,94704.25
2023-05-06T16:07:43.964Z,94711.56
2023-05-06T16:10:11.492Z,94703.78
2023-05-06T16:12:38.518Z,94716.22
2023-05-06T16:15:05.984Z,94690.31
2023-05-06T16:17:37.484Z,94727.03
2023-05-06T16:20:05.562Z,94719.72
2023-05-06T16:22:32.604Z,94736.28
2023-05-06T16:24:59.312Z,94710.09
2023-05-06T16:27:28.288Z,94727.22
2023-05-06T16:29:55.862Z,94720.66
2023-05-06T16:32:23.474Z,94722.28
2023-05-06T16:34:50.796Z,94734.88
2023-05-06T16:37:17.668Z,94704.03
2023-05-06T16:39:44.322Z,94716.00
2023-05-06T16:42:11.344Z,94719.81
2023-05-06T16:44:38.037Z,94740.19
2023-05-06T16:47:04.797Z,94723.03
2023-05-06T16:49:33.846Z,94701.41
2023-05-06T16:52:00.812Z,94683.41
2023-05-06T16:54:27.570Z,94683.03
2023-05-06T16:56:54.835Z,94688.47
2023-05-06T16:59:22.598Z,94688.34
2023-05-06T17:01:50.400Z,94707.72
2023-05-06T17:04:17.275Z,94701.06
2023-05-06T17:06:44.589Z,94694.00
2023-05-06T17:09:12.185Z,94703.16
2023-05-06T17:11:38.924Z,94707.16
2023-05-06T17:14:05.951Z,94711.69
2023-05-06T17:16:33.047Z,94685.50
2023-05-06T17:18:59.898Z,94703.19
2023-05-06T17:21:27.882Z,94706.97
2023-05-06T17:23:54.633Z,94697.97
2023-05-06T17:26:22.146Z,94699.03
2023-05-06T17:28:51.082Z,94703.34
2023-05-06T17:31:18.441Z,94706.13
2023-05-06T17:33:45.998Z,94693.91
2023-05-06T17:36:13.854Z,94709.50
2023-05-06T17:38:40.742Z,94698.38
2023-05-06T17:41:07.543Z,94698.56
2023-05-06T17:43:34.606Z,94706.69
2023-05-06T17:46:01.758Z,94704.09
2023-05-06T17:48:28.638Z,94714.50
2023-05-06T17:51:00.961Z,94713.22
2023-05-06T17:53:28.304Z,94701.47
2023-05-06T17:55:55.129Z,94714.47
2023-05-06T17:58:21.966Z,94716.81
2023-05-06T18:00:48.733Z,94716.22
2023-05-06T18:03:16.143Z,94713.44
2023-05-06T18:05:42.900Z,94720.59
2023-05-06T18:08:09.880Z,94714.41
2023-05-06T18:10:36.749Z,94715.25
2023-05-06T18:13:03.959Z,94721.47
2023-05-06T18:15:31.396Z,94718.03
2023-05-06T18:17:58.199Z,94714.28
2023-05-06T18:20:25.109Z,94718.56
2023-05-06T18:22:52.246Z,94717.75
2023-05-06T18:25:19.151Z,94717.94
2023-05-06T18:27:47.395Z,94728.56
2023-05-06T18:30:16.223Z,94727.28
2023-05-06T18:32:42.999Z,94723.72
2023-05-06T18:35:13.713Z,94737.00
2023-05-06T18:37:41.600Z,94726.56
2023-05-06T18:40:09.262Z,94728.16
2023-05-06T18:42:36.140Z,94729.31
2023-05-06T18:45:05.219Z,94725.91
2023-05-06T18:47:32.537Z,94746.72
2023-05-06T18:50:00.759Z,94749.88
2023-05-06T18:52:28.582Z,94754.13
2023-05-06T18:54:55.583Z,94750.97
2023-05-06T18:57:23.572Z,94756.75
2023-05-06T18:59:50.371Z,94756.03
2023-05-06T19:02:17.433Z,94751.44
2023-05-06T19:04:44.220Z,94752.53
2023-05-06T19:07:12.798Z,94755.94
2023-05-06T19:09:42.572Z,94763.31
2023-05-06T19:12:09.324Z,94762.53
2023-05-06T19:14:36.207Z,94758.16
2023-05-06T19:17:04.672Z,94760.25
2023-05-06T19:19:31.997Z,94757.47
2023-05-06T19:21:59.781Z,94751.63
2023-05-06T19:24:26.851Z,94750.31
2023-05-06T19:26:53.730Z,94753.47
2023-05-06T19:29:20.808Z,94741.72
2023-05-06T19:31:47.748Z,94748.94
2023-05-06T19:34:14.523Z,94759.34
2023-05-06T19:36:41.471Z,94753.31
2023-05-06T19:39:08.419Z,94751.72
2023-05-06T19:41:35.605Z,94752.69
2023-05-06T19:44:02.652Z,94754.16
2023-05-06T19:46:29.401Z,94759.47
2023-05-06T19:48:58.146Z,94759.47
2023-05-06T19:51:25.008Z,94758.84
2023-05-06T19:53:51.808Z,94761.13
2023-05-06T19:56:19.729Z,94757.78
2023-05-06T19:58:46.725Z,94751.59
2023-05-06T20:01:13.835Z,94751.19
2023-05-06T20:03:40.858Z,94753.16
2023-05-06T20:06:08.166Z,94754.16
2023-05-06T20:08:35.561Z,94749.81
2023-05-06T20:11:03.227Z,94755.13
2023-05-06T20:13:30.033Z,94744.00
2023-05-06T20:15:57.699Z,94746.28
2023-05-06T20:18:25.629Z,94739.19
2023-05-06T20:20:52.433Z,94748.03
2023-05-06T20:23:19.120Z,94743.66
2023-05-06T20:25:45.858Z,94747.56
2023-05-06T20:28:13.336Z,94752.75
2023-05-06T20:30:40.397Z,94754.59
2023-05-06T20:33:08.026Z,94750.75
2023-05-06T20:35:38.524Z,94750.41
2023-05-06T20:38:06.571Z,94746.56
2023-05-06T20:40:35.872Z,94748.22
2023-05-06T20:43:04.041Z,94741.38
2023-05-06T20:45:31.802Z,94750.84
2023-05-06T20:47:59.110Z,94740.50
2023-05-06T20:50:26.082Z,94743.47
2023-05-06T20:52:54.479Z,94752.97
2023-05-06T20:55:23.487Z,94754.19
2023-05-06T20:57:50.480Z,94750.69
2023-05-06T21:00:18.905Z,94743.09
2023-05-06T21:02:45.661Z,94756.28
2023-05-06T21:05:12.765Z,94738.03
2023-05-06T21:07:39.928Z,94742.75
2023-05-06T21:10:07.545Z,94744.03
2023-05-06T21:12:34.523Z,94746.38
2023-05-06T21:15:01.425Z,94742.97
2023-05-06T21:17:29.247Z,94747.38
2023-05-06T21:19:56.321Z,94755.38
2023-05-06T21:22:23.964Z,94737.75
2023-05-06T21:24:51.429Z,94748.38
2023-05-06T21:27:18.655Z,94755.13
2023-05-06T21:29:45.468Z,94743.09
2023-05-06T21:32:12.452Z,94741.97
2023-05-06T21:34:39.382Z,94755.66
2023-05-06T21:37:06.126Z,94755.34
2023-05-06T21:39:33.254Z,94752.31
2023-05-06T21:42:00.038Z,94742.31
2023-05-06T21:44:26.754Z,94743.56
2023-05-06T21:46:53.857Z,94751.03
2023-05-06T21:49:22.302Z,94744.31
2023-05-06T21:51:49.556Z,94733.66
2023-05-06T21:54:17.383Z,94742.75
2023-05-06T21:56:44.589Z,94748.56
2023-05-06T21:59:11.495Z,94743.78
2023-05-06T22:01:39.048Z,94742.31
2023-05-06T22:04:11.438Z,94731.25
2023-05-06T22:06:39.510Z,94735.13
2023-05-06T22:09:09.476Z,94732.09
2023-05-06T22:11:38.329Z,94728.31
2023-05-06T22:14:06.696Z,94741.59
2023-05-06T22:16:35.558Z,94735.38
2023-05-06T22:19:03.910Z,94747.59
2023-05-06T22:21:31.983Z,94737.78
2023-05-06T22:23:59.611Z,94745.88
2023-05-06T22:26:28.139Z,94738.09
2023-05-06T22:28:58.156Z,94747.09
2023-05-06T22:31:26.030Z,94739.03
2023-05-06T22:33:57.542Z,94734.22
2023-05-06T22:36:29.159Z,94737.16
2023-05-06T22:38:56.239Z,94727.25
2023-05-06T22:41:23.276Z,94716.00
2023-05-06T22:43:50.103Z,94714.81
2023-05-06T22:46:17.055Z,94722.00
2023-05-06T22:48:47.095Z,94729.75
2023-05-06T22:51:16.897Z,94724.91
2023-05-06T22:53:43.963Z,94716.41
2023-05-06T22:56:11.231Z,94722.13
2023-05-06T22:58:38.203Z,94722.22
2023-05-06T23:01:05.148Z,94718.06
2023-05-06T23:03:31.872Z,94727.63
2023-05-06T23:05:58.684Z,94724.34
2023-05-06T23:08:25.537Z,94729.16
2023-05-06T23:10:52.543Z,94736.59
2023-05-06T23:13:19.599Z,94715.75
2023-05-06T23:15:46.358Z,94718.13
2023-05-06T23:18:13.072Z,94706.78
2023-05-06T23:20:39.813Z,94711.88
2023-05-06T23:23:10.533Z,94694.94
2023-05-06T23:25:37.656Z,94694.66
2023-05-06T23:28:04.817Z,94708.50
2023-05-06T23:30:31.605Z,94702.28
2023-05-06T23:32:58.446Z,94702.31
2023-05-06T23:35:26.042Z,94716.81
2023-05-06T23:37:52.990Z,94707.72
2023-05-06T23:40:19.925Z,94703.41
2023-05-06T23:42:46.649Z,94707.19
2023-05-06T23:45:13.465Z,94725.66
2023-05-06T23:47:40.484Z,94724.16
2023-05-06T23:50:07.907Z,94723.34
2023-05-06T23:52:37.315Z,94724.94
2023-05-06T23:55:05.490Z,94715.13
2023-05-06T23:57:32.356Z,94707.56
2023-05-06T23:59:59.363Z,94720.72
